Wallingford, Kentucky
Current Conditions -  °F | °C
As of 4:15 AM on Thursday 18 Dec 2014 (Local Time) from KFGX Reporting Station
Overcast Overcast  
Wind Chill: 22°   Ceiling: 1800
Heat Index: 27°   Visibility: 10mi
Dew Point: 21°   Wind: 5mph
Humidity: 79%   Direction: 10°N
Pressure: 30.27"   Gusts: NA
Location:  38.4°N, 83.61°W
Report Text: KFGX 180915Z AUTO 01004KT 10SM OVC018 M03/M06 A3027 RMK AO2 T10271059
Loading
Personal Weather Stations






























Interactive Weather Map New forecast layout! Learn more

10-Day Weather Forecast

Advertisements
Track Severe Weather on mobile